createdAt,value
2023-05-22T00:00:18.692Z,86.23
2023-05-22T00:02:46.021Z,72.07
2023-05-22T00:05:13.894Z,77.70
2023-05-22T00:07:42.103Z,77.13
2023-05-22T00:10:09.587Z,74.77
2023-05-22T00:12:36.578Z,71.90
2023-05-22T00:15:05.264Z,78.13
2023-05-22T00:17:34.557Z,64.17
2023-05-22T00:20:08.389Z,63.83
2023-05-22T00:22:38.392Z,62.87
2023-05-22T00:25:05.805Z,60.80
2023-05-22T00:27:34.324Z,70.60
2023-05-22T00:30:01.410Z,63.50
2023-05-22T00:32:28.861Z,52.83
2023-05-22T00:34:56.160Z,58.37
2023-05-22T00:37:23.410Z,57.50
2023-05-22T00:39:50.647Z,53.93
2023-05-22T00:42:18.557Z,75.00
2023-05-22T00:44:46.099Z,57.73
2023-05-22T00:47:12.997Z,66.60
2023-05-22T00:49:40.102Z,76.10
2023-05-22T00:52:07.577Z,81.03
2023-05-22T00:54:34.943Z,76.00
2023-05-22T00:57:03.628Z,71.23
2023-05-22T00:59:31.216Z,66.63
2023-05-22T01:01:58.862Z,74.00
2023-05-22T01:04:26.060Z,72.03
2023-05-22T01:06:53.914Z,81.13
2023-05-22T01:09:21.043Z,76.37
2023-05-22T01:11:51.511Z,71.97
2023-05-22T01:14:18.522Z,69.07
2023-05-22T01:16:48.645Z,82.03
2023-05-22T01:22:17.688Z,70.00
2023-05-22T01:24:52.270Z,69.60
2023-05-22T01:27:28.968Z,70.20
2023-05-22T01:30:19.610Z,71.23
2023-05-22T01:32:47.251Z,71.07
2023-05-22T01:35:17.715Z,74.60
2023-05-22T01:37:45.663Z,68.73
2023-05-22T01:40:13.265Z,75.23
2023-05-22T01:42:41.478Z,83.03
2023-05-22T01:45:09.794Z,77.77
2023-05-22T01:47:37.422Z,89.57
2023-05-22T01:50:05.846Z,88.43
2023-05-22T01:52:41.116Z,80.50
2023-05-22T01:55:09.936Z,84.33
2023-05-22T01:57:51.929Z,77.20
2023-05-22T02:00:20.120Z,95.60
2023-05-22T02:02:53.681Z,88.63
2023-05-22T02:05:22.302Z,87.77
2023-05-22T02:07:50.248Z,94.27
2023-05-22T02:10:18.954Z,92.37
2023-05-22T02:12:46.181Z,79.90
2023-05-22T02:15:13.425Z,81.97
2023-05-22T02:17:40.555Z,79.70
2023-05-22T02:20:15.646Z,81.93
2023-05-22T02:22:46.914Z,87.70
2023-05-22T02:25:15.081Z,81.97
2023-05-22T02:27:45.353Z,82.10
2023-05-22T02:30:12.859Z,90.63
2023-05-22T02:32:42.029Z,82.40
2023-05-22T02:35:09.606Z,96.20
2023-05-22T02:37:37.081Z,105.43
2023-05-22T02:40:07.106Z,91.63
2023-05-22T02:42:34.679Z,86.97
2023-05-22T02:45:02.884Z,76.00
2023-05-22T02:47:33.029Z,75.70
2023-05-22T02:49:59.885Z,86.57
2023-05-22T02:52:28.541Z,89.73
2023-05-22T02:54:55.461Z,91.63
2023-05-22T02:57:23.072Z,83.50
2023-05-22T02:59:50.186Z,103.63
2023-05-22T03:02:17.903Z,84.83
2023-05-22T03:04:44.915Z,86.23
2023-05-22T03:07:12.415Z,85.93
2023-05-22T03:09:39.528Z,90.00
2023-05-22T03:12:06.775Z,76.97
2023-05-22T03:14:33.756Z,90.97
2023-05-22T03:17:01.017Z,95.80
2023-05-22T03:19:28.173Z,90.10
2023-05-22T03:21:55.237Z,90.20
2023-05-22T03:24:22.481Z,83.17
2023-05-22T03:26:49.489Z,83.43
2023-05-22T03:29:23.580Z,95.00
2023-05-22T03:31:50.808Z,85.47
2023-05-22T03:34:17.695Z,90.13
2023-05-22T03:36:47.479Z,83.50
2023-05-22T03:39:16.625Z,104.87
2023-05-22T03:41:53.227Z,86.43
2023-05-22T03:44:20.708Z,89.10
2023-05-22T03:46:47.706Z,82.30
2023-05-22T03:49:15.567Z,79.30
2023-05-22T03:51:42.435Z,79.60
2023-05-22T03:54:09.436Z,85.97
2023-05-22T03:56:36.359Z,94.13
2023-05-22T03:59:03.556Z,86.90
2023-05-22T04:01:31.518Z,84.20
2023-05-22T04:03:58.767Z,80.53
2023-05-22T04:06:26.129Z,81.97
2023-05-22T04:08:53.006Z,88.23
2023-05-22T04:11:21.221Z,80.60
2023-05-22T04:13:49.550Z,79.70
2023-05-22T04:16:17.649Z,76.50
2023-05-22T04:18:44.983Z,74.70
2023-05-22T04:21:12.881Z,68.70
2023-05-22T04:23:43.415Z,88.77
2023-05-22T04:26:10.551Z,80.90
2023-05-22T04:28:38.071Z,79.67
2023-05-22T04:31:06.841Z,88.97
2023-05-22T04:33:34.879Z,90.07
2023-05-22T04:36:02.577Z,66.57
2023-05-22T04:38:29.514Z,90.93
2023-05-22T04:40:56.764Z,78.67
2023-05-22T04:43:26.912Z,66.77
2023-05-22T04:45:54.814Z,81.73
2023-05-22T04:48:22.587Z,81.20
2023-05-22T04:50:50.415Z,82.23
2023-05-22T04:53:17.665Z,83.57
2023-05-22T04:55:44.792Z,67.27
2023-05-22T04:58:11.936Z,74.47
2023-05-22T05:00:39.056Z,89.90
2023-05-22T05:03:08.420Z,92.03
2023-05-22T05:05:35.438Z,99.57
2023-05-22T05:08:02.665Z,97.77
2023-05-22T05:10:29.926Z,115.20
2023-05-22T05:12:56.796Z,104.90
2023-05-22T05:15:24.034Z,100.17
2023-05-22T05:17:51.649Z,103.30
2023-05-22T05:20:18.682Z,90.00
2023-05-22T05:22:46.394Z,104.23
2023-05-22T05:25:14.938Z,90.80
2023-05-22T05:27:42.651Z,112.60
2023-05-22T05:30:10.766Z,97.77
2023-05-22T05:33:06.698Z,95.90
2023-05-22T05:35:53.818Z,98.87
2023-05-22T05:38:24.178Z,115.80
2023-05-22T05:40:51.547Z,99.60
2023-05-22T05:43:20.476Z,96.40
2023-05-22T05:45:48.114Z,92.10
2023-05-22T05:48:16.877Z,94.00
2023-05-22T05:50:46.036Z,88.23
2023-05-22T05:53:13.520Z,86.43
2023-05-22T05:55:45.084Z,85.20
2023-05-22T05:58:12.680Z,91.63
2023-05-22T06:00:57.566Z,109.97
2023-05-22T06:03:25.790Z,99.33
2023-05-22T06:06:21.818Z,107.07
2023-05-22T06:09:24.328Z,99.43
2023-05-22T06:12:06.694Z,94.63
2023-05-22T06:14:33.584Z,89.10
2023-05-22T06:17:00.494Z,100.63
2023-05-22T06:19:27.499Z,83.63
2023-05-22T06:21:54.818Z,86.23
2023-05-22T06:24:21.951Z,106.33
2023-05-22T06:26:50.273Z,95.53
2023-05-22T06:29:17.531Z,102.87
2023-05-22T06:31:46.664Z,100.33
2023-05-22T06:34:17.109Z,98.17
2023-05-22T06:36:46.324Z,106.23
2023-05-22T06:39:14.769Z,115.53
2023-05-22T06:42:00.362Z,98.70
2023-05-22T06:44:47.446Z,111.93
2023-05-22T06:47:14.437Z,105.73
2023-05-22T06:49:42.042Z,104.43
2023-05-22T06:52:09.982Z,99.10
2023-05-22T06:54:37.583Z,92.30
2023-05-22T06:57:05.301Z,108.93
2023-05-22T06:59:32.418Z,107.53
2023-05-22T07:02:22.230Z,93.87
2023-05-22T07:05:09.567Z,101.70
2023-05-22T07:07:47.425Z,98.67
2023-05-22T07:10:14.908Z,100.50
2023-05-22T07:12:41.912Z,96.50
2023-05-22T07:15:12.217Z,97.43
2023-05-22T07:17:42.038Z,105.57
2023-05-22T07:20:16.363Z,99.47
2023-05-22T07:22:50.212Z,97.50
2023-05-22T07:25:17.326Z,101.03
2023-05-22T07:27:44.329Z,95.23
2023-05-22T07:30:12.925Z,99.73
2023-05-22T07:32:41.286Z,89.83
2023-05-22T07:35:08.616Z,102.63
2023-05-22T07:37:36.661Z,90.50
2023-05-22T07:40:07.870Z,90.20
2023-05-22T07:42:35.099Z,94.90
2023-05-22T07:45:04.263Z,87.20
2023-05-22T07:47:31.960Z,92.40
2023-05-22T07:49:59.716Z,100.63
2023-05-22T07:52:27.792Z,102.33
2023-05-22T07:54:54.694Z,87.87
2023-05-22T07:57:23.117Z,94.50
2023-05-22T07:59:51.077Z,89.83
2023-05-22T08:02:18.820Z,103.83
2023-05-22T08:04:45.823Z,100.57
2023-05-22T08:07:12.929Z,103.23
2023-05-22T08:09:40.177Z,89.23
2023-05-22T08:12:07.997Z,95.37
2023-05-22T08:14:35.281Z,98.23
2023-05-22T08:17:02.310Z,108.27
2023-05-22T08:19:29.493Z,102.57
2023-05-22T08:21:58.389Z,99.87
2023-05-22T08:24:28.734Z,90.53
2023-05-22T08:26:56.857Z,107.27
2023-05-22T08:29:23.988Z,90.70
2023-05-22T08:31:52.368Z,101.80
2023-05-22T08:34:19.675Z,100.90
2023-05-22T08:36:46.553Z,103.37
2023-05-22T08:39:14.511Z,90.77
2023-05-22T08:41:44.039Z,93.70
2023-05-22T08:44:13.469Z,92.10
2023-05-22T08:46:45.508Z,86.23
2023-05-22T08:49:12.966Z,95.37
2023-05-22T08:51:40.814Z,104.97
2023-05-22T08:54:09.490Z,97.03
2023-05-22T08:56:39.883Z,109.00
2023-05-22T08:59:12.969Z,93.50
2023-05-22T09:01:39.945Z,103.53
2023-05-22T09:04:07.254Z,101.97
2023-05-22T09:06:34.117Z,96.70
2023-05-22T09:09:01.711Z,102.00
2023-05-22T09:11:28.716Z,118.90
2023-05-22T09:14:16.362Z,102.07
2023-05-22T09:16:44.227Z,113.10
2023-05-22T09:19:12.542Z,97.27
2023-05-22T09:21:39.448Z,107.07
2023-05-22T09:24:12.534Z,104.33
2023-05-22T09:26:40.120Z,99.90
2023-05-22T09:29:07.732Z,95.83
2023-05-22T09:31:41.746Z,98.93
2023-05-22T09:34:14.524Z,90.73
2023-05-22T09:36:42.612Z,96.70
2023-05-22T09:39:09.914Z,102.53
2023-05-22T09:41:37.928Z,104.37
2023-05-22T09:44:15.080Z,108.20
2023-05-22T09:46:42.939Z,90.00
2023-05-22T09:49:09.906Z,98.70
2023-05-22T09:51:39.912Z,121.90
2023-05-22T09:54:07.881Z,125.83
2023-05-22T09:56:39.965Z,121.23
2023-05-22T09:59:09.634Z,126.50
2023-05-22T10:01:38.746Z,118.50
2023-05-22T10:04:06.742Z,121.33
2023-05-22T10:06:34.775Z,116.63
2023-05-22T10:09:07.422Z,112.40
2023-05-22T10:11:34.655Z,108.43
2023-05-22T10:14:02.850Z,119.67
2023-05-22T10:16:30.483Z,115.90
2023-05-22T10:18:58.156Z,129.17
2023-05-22T10:21:25.687Z,124.13
2023-05-22T10:23:53.633Z,116.87
2023-05-22T10:26:21.512Z,117.53
2023-05-22T10:28:53.146Z,112.70
2023-05-22T10:31:37.167Z,115.20
2023-05-22T10:34:30.246Z,115.47
2023-05-22T10:37:13.270Z,116.50
2023-05-22T10:39:53.396Z,118.10
2023-05-22T10:42:20.528Z,118.70
2023-05-22T10:44:48.391Z,108.83
2023-05-22T10:47:15.369Z,104.43
2023-05-22T10:49:44.424Z,118.53
2023-05-22T10:52:11.889Z,99.87
2023-05-22T10:54:46.032Z,111.90
2023-05-22T10:57:17.060Z,125.53
2023-05-22T10:59:44.430Z,109.20
2023-05-22T11:02:21.744Z,109.87
2023-05-22T11:04:49.289Z,108.60
2023-05-22T11:07:16.250Z,94.00
2023-05-22T11:09:46.040Z,97.50
2023-05-22T11:12:27.552Z,94.60
2023-05-22T11:14:59.558Z,98.23
2023-05-22T11:17:28.089Z,113.50
2023-05-22T11:19:59.400Z,104.33
2023-05-22T11:22:33.788Z,111.83
2023-05-22T11:25:03.313Z,116.83
2023-05-22T11:27:30.166Z,112.87
2023-05-22T11:29:57.179Z,109.87
2023-05-22T11:32:24.544Z,111.40
2023-05-22T11:34:51.433Z,108.73
2023-05-22T11:37:19.137Z,129.60
2023-05-22T11:39:56.128Z,121.70
2023-05-22T11:42:23.466Z,118.87
2023-05-22T11:44:50.596Z,115.40
2023-05-22T11:47:17.598Z,109.93
2023-05-22T11:49:44.716Z,119.57
2023-05-22T11:52:11.605Z,123.20
2023-05-22T11:54:39.037Z,120.03
2023-05-22T11:57:09.327Z,115.13
2023-05-22T11:59:36.313Z,120.13
2023-05-22T12:02:03.202Z,103.83
2023-05-22T12:04:30.319Z,107.27
2023-05-22T12:06:57.244Z,104.70
2023-05-22T12:09:24.209Z,120.90
2023-05-22T12:11:51.100Z,114.57
2023-05-22T12:14:18.085Z,112.83
2023-05-22T12:16:45.187Z,120.43
2023-05-22T12:19:13.010Z,119.90
2023-05-22T12:21:42.204Z,117.73
2023-05-22T12:24:09.096Z,114.80
2023-05-22T12:26:36.494Z,118.27
2023-05-22T12:29:06.701Z,121.13
2023-05-22T12:31:38.722Z,122.30
2023-05-22T12:34:08.905Z,118.83
2023-05-22T12:36:38.051Z,135.80
2023-05-22T12:39:12.170Z,124.10
2023-05-22T12:41:39.292Z,131.43
2023-05-22T12:44:06.560Z,126.17
2023-05-22T12:46:34.150Z,129.87
2023-05-22T12:49:02.051Z,127.10
2023-05-22T12:51:30.028Z,107.17
2023-05-22T12:53:57.397Z,110.00
2023-05-22T12:56:24.618Z,112.03
2023-05-22T12:58:51.734Z,125.90
2023-05-22T13:01:18.880Z,105.10
2023-05-22T13:03:46.349Z,109.50
2023-05-22T13:06:13.217Z,122.67
2023-05-22T13:08:40.220Z,133.23
2023-05-22T13:11:07.234Z,113.23
2023-05-22T13:13:34.239Z,124.73
2023-05-22T13:16:01.378Z,123.70
2023-05-22T13:18:28.353Z,133.33
2023-05-22T13:20:57.798Z,125.63
2023-05-22T13:23:24.763Z,123.37
2023-05-22T13:25:51.772Z,116.27
2023-05-22T13:28:18.762Z,111.27
2023-05-22T13:30:45.998Z,117.37
2023-05-22T13:33:13.851Z,117.03
2023-05-22T13:35:41.360Z,119.77
2023-05-22T13:38:08.329Z,113.67
2023-05-22T13:40:36.675Z,104.83
2023-05-22T13:43:03.661Z,111.87
2023-05-22T13:45:31.269Z,114.53
2023-05-22T13:47:58.295Z,119.67
2023-05-22T13:50:25.502Z,112.33
2023-05-22T13:52:52.390Z,110.00
2023-05-22T13:55:19.517Z,113.53
2023-05-22T13:57:46.641Z,110.60
2023-05-22T14:00:13.885Z,116.47
2023-05-22T14:02:40.963Z,122.07
2023-05-22T14:05:08.496Z,116.73
2023-05-22T14:07:35.634Z,121.13
2023-05-22T14:10:02.603Z,129.10
2023-05-22T14:12:29.999Z,115.83
2023-05-22T14:14:56.967Z,109.37
2023-05-22T14:17:23.858Z,111.03
2023-05-22T14:19:50.854Z,113.07
2023-05-22T14:22:18.092Z,109.77
2023-05-22T14:24:44.990Z,103.73
2023-05-22T14:27:11.863Z,112.20
2023-05-22T14:29:38.759Z,116.53
2023-05-22T14:32:05.752Z,100.17
2023-05-22T14:34:32.632Z,122.50
2023-05-22T14:36:59.626Z,117.70
2023-05-22T14:39:26.512Z,129.67
2023-05-22T14:41:54.002Z,107.33
2023-05-22T14:44:22.654Z,103.60
2023-05-22T14:46:51.123Z,111.23
2023-05-22T14:49:18.246Z,107.93
2023-05-22T14:51:48.180Z,109.00
2023-05-22T14:54:17.892Z,109.20
2023-05-22T14:56:45.431Z,122.63
2023-05-22T14:59:12.740Z,112.60
2023-05-22T15:01:39.639Z,108.73
2023-05-22T15:04:07.986Z,105.87
2023-05-22T15:06:35.297Z,114.10
2023-05-22T15:09:02.199Z,109.87
2023-05-22T15:11:29.445Z,103.43
2023-05-22T15:13:56.409Z,108.40
2023-05-22T15:16:23.853Z,107.10
2023-05-22T15:18:51.181Z,117.33
2023-05-22T15:21:18.296Z,108.27
2023-05-22T15:23:45.529Z,111.20
2023-05-22T15:26:12.525Z,103.37
2023-05-22T15:28:39.416Z,99.43
2023-05-22T15:31:06.646Z,99.03
2023-05-22T15:33:34.483Z,110.87
2023-05-22T15:36:01.517Z,108.63
2023-05-22T15:38:28.980Z,93.33
2023-05-22T15:40:55.972Z,99.63
2023-05-22T15:43:24.345Z,91.97
2023-05-22T15:45:53.762Z,90.83
2023-05-22T15:48:21.067Z,79.00
2023-05-22T15:50:48.191Z,94.73
2023-05-22T15:53:15.189Z,99.97
2023-05-22T15:55:42.219Z,97.80
2023-05-22T15:58:09.333Z,96.33
2023-05-22T16:00:41.251Z,102.83
2023-05-22T16:03:09.219Z,97.17
2023-05-22T16:05:36.928Z,95.70
2023-05-22T16:08:03.796Z,103.43
2023-05-22T16:10:31.068Z,99.63
2023-05-22T16:12:58.054Z,114.60
2023-05-22T16:15:25.179Z,100.17
2023-05-22T16:17:52.386Z,100.53
2023-05-22T16:20:20.317Z,96.43
2023-05-22T16:22:49.268Z,86.67
2023-05-22T16:25:17.022Z,86.50
2023-05-22T16:27:44.511Z,113.60
2023-05-22T16:30:12.349Z,105.17
2023-05-22T16:32:39.499Z,95.30
2023-05-22T16:35:06.823Z,85.13
2023-05-22T16:37:33.849Z,84.83
2023-05-22T16:40:00.926Z,98.17
2023-05-22T16:42:28.083Z,89.00
2023-05-22T16:44:55.212Z,88.27
2023-05-22T16:47:22.329Z,87.47
2023-05-22T16:49:49.804Z,93.00
2023-05-22T16:52:18.281Z,97.23
2023-05-22T16:54:45.380Z,104.53
2023-05-22T16:57:12.380Z,83.47
2023-05-22T16:59:39.614Z,99.90
2023-05-22T17:02:06.636Z,82.43
2023-05-22T17:04:33.581Z,85.43
2023-05-22T17:07:00.753Z,81.73
2023-05-22T17:09:28.003Z,79.67
2023-05-22T17:11:55.005Z,82.63
2023-05-22T17:14:22.251Z,84.60
2023-05-22T17:16:49.368Z,87.30
2023-05-22T17:19:20.126Z,88.10
2023-05-22T17:21:47.942Z,75.80
2023-05-22T17:24:15.405Z,93.33
2023-05-22T17:26:44.197Z,88.20
2023-05-22T17:29:11.949Z,92.03
2023-05-22T17:31:39.642Z,85.60
2023-05-22T17:34:07.013Z,84.50
2023-05-22T17:36:34.251Z,71.97
2023-05-22T17:39:01.276Z,76.97
2023-05-22T17:41:28.733Z,75.23
2023-05-22T17:43:57.188Z,89.90
2023-05-22T17:46:24.557Z,70.93
2023-05-22T17:48:51.546Z,86.83
2023-05-22T17:51:18.544Z,75.40
2023-05-22T17:53:46.619Z,71.80
2023-05-22T17:56:13.628Z,66.67
2023-05-22T17:58:40.891Z,64.70
2023-05-22T18:01:07.980Z,66.73
2023-05-22T18:03:35.326Z,68.73
2023-05-22T18:06:02.422Z,64.60
2023-05-22T18:08:29.600Z,63.27
2023-05-22T18:10:58.075Z,58.13
2023-05-22T18:13:25.163Z,60.80
2023-05-22T18:15:52.326Z,61.57
2023-05-22T18:18:19.285Z,69.33
2023-05-22T18:20:46.528Z,60.57
2023-05-22T18:23:13.772Z,75.37
2023-05-22T18:25:41.648Z,65.43
2023-05-22T18:28:08.620Z,63.80
2023-05-22T18:30:35.627Z,62.30
2023-05-22T18:33:03.881Z,58.43
2023-05-22T18:35:30.954Z,66.07
2023-05-22T18:38:00.950Z,57.90
2023-05-22T18:40:27.940Z,60.80
2023-05-22T18:42:55.070Z,67.10
2023-05-22T18:45:21.945Z,72.70
2023-05-22T18:47:49.138Z,68.00
2023-05-22T18:50:16.070Z,62.33
2023-05-22T18:52:43.085Z,60.77
2023-05-22T18:55:10.675Z,61.80
2023-05-22T18:57:37.687Z,71.93
2023-05-22T19:00:04.955Z,66.33
2023-05-22T19:02:32.135Z,66.40
2023-05-22T19:04:59.339Z,80.97
2023-05-22T19:07:27.066Z,64.90
2023-05-22T19:09:54.036Z,60.53
2023-05-22T19:12:21.017Z,60.53
2023-05-22T19:14:49.817Z,80.77
2023-05-22T19:17:17.242Z,69.93
2023-05-22T19:19:44.567Z,73.63
2023-05-22T19:22:11.601Z,67.90
2023-05-22T19:24:38.700Z,73.20
2023-05-22T19:27:06.159Z,69.60
2023-05-22T19:29:33.282Z,80.37
2023-05-22T19:32:00.635Z,75.97
2023-05-22T19:34:27.635Z,80.50
2023-05-22T19:36:57.715Z,71.73
2023-05-22T19:39:25.138Z,81.47
2023-05-22T19:41:52.842Z,88.70
2023-05-22T19:44:20.108Z,87.43
2023-05-22T19:46:47.305Z,68.87
2023-05-22T19:49:14.487Z,93.27
2023-05-22T19:51:42.542Z,77.27
2023-05-22T19:54:09.562Z,96.07
2023-05-22T19:56:37.395Z,85.63
2023-05-22T19:59:04.509Z,83.63
2023-05-22T20:01:31.590Z,84.00
2023-05-22T20:03:58.866Z,89.53
2023-05-22T20:06:30.308Z,95.80
2023-05-22T20:08:57.919Z,104.13
2023-05-22T20:11:25.052Z,98.33
2023-05-22T20:13:54.600Z,84.70
2023-05-22T20:16:21.742Z,81.13
2023-05-22T20:18:49.042Z,86.40
2023-05-22T20:21:16.098Z,81.20
2023-05-22T20:23:43.293Z,87.30
2023-05-22T20:26:10.298Z,91.37
2023-05-22T20:28:37.299Z,87.20
2023-05-22T20:31:06.093Z,88.20
2023-05-22T20:33:33.098Z,83.00
2023-05-22T20:36:01.566Z,75.13
2023-05-22T20:38:29.511Z,85.90
2023-05-22T20:40:58.451Z,75.57
2023-05-22T20:43:26.300Z,68.17
2023-05-22T20:45:53.355Z,81.57
2023-05-22T20:48:20.274Z,71.90
2023-05-22T20:50:47.752Z,81.23
2023-05-22T20:53:15.031Z,75.70
2023-05-22T20:55:42.042Z,67.20
2023-05-22T20:58:09.534Z,68.97
2023-05-22T21:00:36.492Z,85.23
2023-05-22T21:03:03.697Z,71.27
2023-05-22T21:05:30.843Z,68.83
2023-05-22T21:07:57.970Z,80.80
2023-05-22T21:10:24.873Z,71.63
2023-05-22T21:12:51.856Z,92.40
2023-05-22T21:15:18.982Z,80.20
2023-05-22T21:17:46.032Z,86.10
2023-05-22T21:20:13.122Z,65.20
2023-05-22T21:22:40.114Z,67.83
2023-05-22T21:25:07.467Z,73.27
2023-05-22T21:27:34.343Z,75.13
2023-05-22T21:30:01.123Z,70.83
2023-05-22T21:32:28.486Z,56.33
2023-05-22T21:34:55.605Z,70.30
2023-05-22T21:37:22.491Z,68.73
2023-05-22T21:39:49.488Z,79.67
2023-05-22T21:42:16.968Z,72.73
2023-05-22T21:44:43.995Z,68.17
2023-05-22T21:47:11.215Z,63.33
2023-05-22T21:49:39.701Z,59.20
2023-05-22T21:52:06.921Z,52.73
2023-05-22T21:54:33.898Z,58.20
2023-05-22T21:57:01.165Z,73.23
2023-05-22T21:59:28.209Z,53.77
2023-05-22T22:01:55.195Z,50.20
2023-05-22T22:04:22.269Z,53.70
2023-05-22T22:06:49.511Z,58.43
2023-05-22T22:09:16.633Z,55.50
2023-05-22T22:11:43.514Z,63.50
2023-05-22T22:14:10.509Z,60.53
2023-05-22T22:16:37.797Z,60.77
2023-05-22T22:19:05.165Z,61.63
2023-05-22T22:21:33.481Z,59.87
2023-05-22T22:24:00.448Z,84.93
2023-05-22T22:26:30.932Z,73.23
2023-05-22T22:28:57.807Z,60.60
2023-05-22T22:31:24.863Z,68.13
2023-05-22T22:33:51.700Z,67.23
2023-05-22T22:36:18.586Z,52.33
2023-05-22T22:38:45.579Z,50.77
2023-05-22T22:41:12.587Z,47.30
2023-05-22T22:43:39.462Z,62.63
2023-05-22T22:46:06.748Z,49.73
2023-05-22T22:48:33.832Z,47.33
2023-05-22T22:51:00.720Z,45.27
2023-05-22T22:53:27.595Z,40.90
2023-05-22T22:55:55.923Z,37.30
2023-05-22T22:58:23.054Z,42.53
2023-05-22T23:00:50.050Z,36.90
2023-05-22T23:03:16.954Z,34.23
2023-05-22T23:05:44.511Z,29.43
2023-05-22T23:08:11.779Z,26.23
2023-05-22T23:10:38.781Z,26.67
2023-05-22T23:13:05.771Z,25.07
2023-05-22T23:15:33.386Z,24.17
2023-05-22T23:18:00.272Z,24.17
2023-05-22T23:20:27.149Z,21.17
2023-05-22T23:22:54.147Z,26.03
2023-05-22T23:25:21.157Z,22.83
2023-05-22T23:27:48.146Z,17.47
2023-05-22T23:30:15.171Z,17.27
2023-05-22T23:32:42.104Z,17.37
2023-05-22T23:35:09.780Z,17.23
2023-05-22T23:37:36.758Z,21.50
2023-05-22T23:40:05.602Z,17.37
2023-05-22T23:42:32.928Z,17.90
2023-05-22T23:44:59.935Z,24.40
2023-05-22T23:47:26.857Z,23.90
2023-05-22T23:49:55.497Z,25.43
2023-05-22T23:52:23.095Z,20.83
2023-05-22T23:54:50.216Z,20.47
2023-05-22T23:57:17.106Z,24.03
2023-05-22T23:59:43.981Z,27.90
